createdAt,value
2019-04-26T00:00:47.951Z,32.20
2019-04-26T00:01:57.598Z,32.11
2019-04-26T00:03:07.786Z,32.21
2019-04-26T00:04:17.064Z,32.12
2019-04-26T00:05:34.346Z,32.43
2019-04-26T00:06:35.512Z,32.57
2019-04-26T00:07:43.531Z,32.13
2019-04-26T00:08:56.203Z,32.30
2019-04-26T00:10:54.153Z,32.24
2019-04-26T00:12:02.064Z,32.29
2019-04-26T00:13:23.419Z,32.33
2019-04-26T00:14:36.027Z,32.54
2019-04-26T00:15:45.783Z,32.37
2019-04-26T00:16:55.220Z,32.64
2019-04-26T00:18:04.914Z,32.78
2019-04-26T00:19:13.827Z,32.40
2019-04-26T00:20:22.282Z,32.77
2019-04-26T00:21:31.461Z,32.58
2019-04-26T00:22:39.700Z,32.93
2019-04-26T00:23:47.605Z,32.44
2019-04-26T00:24:56.508Z,32.74
2019-04-26T00:26:04.408Z,32.51
2019-04-26T00:27:12.735Z,32.68
2019-04-26T00:28:21.168Z,32.56
2019-04-26T00:29:29.537Z,32.57
2019-04-26T00:30:37.467Z,32.62
2019-04-26T00:31:45.565Z,32.84
2019-04-26T00:32:53.608Z,32.78
2019-04-26T00:34:01.499Z,32.91
2019-04-26T00:35:09.965Z,32.79
2019-04-26T00:36:18.685Z,33.19
2019-04-26T00:37:26.648Z,32.93
2019-04-26T00:38:35.000Z,33.03
2019-04-26T00:39:43.404Z,33.87
2019-04-26T00:40:53.139Z,33.01
2019-04-26T00:42:01.636Z,32.91
2019-04-26T00:43:09.994Z,33.28
2019-04-26T00:44:18.650Z,33.03
2019-04-26T00:45:30.967Z,33.86
2019-04-26T00:46:42.075Z,34.00
2019-04-26T00:47:51.867Z,34.06
2019-04-26T00:49:03.371Z,33.50
2019-04-26T00:50:13.763Z,34.04
2019-04-26T00:51:21.897Z,33.40
2019-04-26T00:52:31.399Z,33.42
2019-04-26T00:53:42.580Z,33.49
2019-04-26T00:54:50.491Z,33.59
2019-04-26T00:56:00.334Z,34.02
2019-04-26T00:57:09.018Z,34.58
2019-04-26T00:58:18.662Z,33.91
2019-04-26T00:59:28.512Z,34.84
2019-04-26T01:00:37.424Z,33.93
2019-04-26T01:01:46.847Z,33.89
2019-04-26T01:02:56.383Z,34.45
2019-04-26T01:04:04.973Z,34.38
2019-04-26T01:05:13.063Z,33.91
2019-04-26T01:06:23.687Z,34.75
2019-04-26T01:07:31.850Z,34.10
2019-04-26T01:08:39.943Z,34.21
2019-04-26T01:09:48.063Z,34.48
2019-04-26T01:10:56.067Z,34.28
2019-04-26T01:12:04.132Z,35.33
2019-04-26T01:13:12.130Z,34.60
2019-04-26T01:14:20.023Z,36.91
2019-04-26T01:15:28.218Z,35.68
2019-04-26T01:16:36.104Z,34.49
2019-04-26T01:17:44.102Z,35.90
2019-04-26T01:18:54.242Z,34.75
2019-04-26T01:20:03.810Z,35.75
2019-04-26T01:21:17.098Z,36.25
2019-04-26T01:22:29.473Z,36.14
2019-04-26T01:23:41.637Z,36.21
2019-04-26T01:24:54.639Z,35.97
2019-04-26T01:26:19.269Z,35.73
2019-04-26T01:27:31.177Z,35.63
2019-04-26T01:28:55.359Z,35.04
2019-04-26T01:30:10.606Z,35.16
2019-04-26T01:31:19.954Z,35.12
2019-04-26T01:32:31.004Z,35.90
2019-04-26T01:33:40.221Z,35.89
2019-04-26T01:34:51.424Z,36.34
2019-04-26T01:36:12.118Z,36.68
2019-04-26T01:37:10.495Z,35.13
2019-04-26T01:38:19.237Z,35.20
2019-04-26T01:39:28.375Z,35.23
2019-04-26T01:40:37.303Z,35.47
2019-04-26T01:41:51.443Z,35.23
2019-04-26T01:43:10.501Z,35.19
2019-04-26T01:44:24.717Z,35.32
2019-04-26T01:45:36.441Z,35.16
2019-04-26T01:46:46.852Z,35.35
2019-04-26T01:47:59.144Z,35.27
2019-04-26T01:49:11.931Z,35.25
2019-04-26T01:50:25.290Z,35.18
2019-04-26T01:51:40.988Z,35.15
2019-04-26T01:52:49.410Z,35.16
2019-04-26T01:53:57.696Z,35.11
2019-04-26T01:55:08.311Z,35.35
2019-04-26T01:56:21.821Z,35.15
2019-04-26T01:57:32.295Z,35.29
2019-04-26T01:58:40.325Z,36.13
2019-04-26T01:59:54.430Z,35.27
2019-04-26T02:01:04.667Z,35.26
2019-04-26T02:02:30.611Z,35.94
2019-04-26T02:03:38.915Z,35.38
2019-04-26T02:04:48.954Z,36.11
2019-04-26T02:05:57.237Z,35.42
2019-04-26T02:07:05.762Z,35.45
2019-04-26T02:08:13.728Z,35.45
2019-04-26T02:09:22.990Z,35.50
2019-04-26T02:10:31.194Z,35.48
2019-04-26T02:11:40.282Z,35.52
2019-04-26T02:12:50.484Z,35.47
2019-04-26T02:13:58.422Z,35.51
2019-04-26T02:15:08.154Z,35.52
2019-04-26T02:16:16.179Z,35.55
2019-04-26T02:17:25.359Z,36.20
2019-04-26T02:18:33.843Z,35.77
2019-04-26T02:19:42.012Z,35.70
2019-04-26T02:21:04.327Z,35.54
2019-04-26T02:22:26.491Z,35.66
2019-04-26T02:23:36.118Z,35.64
2019-04-26T02:24:45.721Z,35.67
2019-04-26T02:25:54.141Z,35.67
2019-04-26T02:27:03.727Z,35.73
2019-04-26T02:28:11.618Z,35.63
2019-04-26T02:29:28.611Z,35.68
2019-04-26T02:30:36.891Z,35.84
2019-04-26T02:31:48.573Z,35.65
2019-04-26T02:32:57.109Z,35.67
2019-04-26T02:34:07.418Z,35.56
2019-04-26T02:35:15.200Z,35.76
2019-04-26T02:36:27.509Z,35.75
2019-04-26T02:37:36.736Z,35.75
2019-04-26T02:38:46.491Z,35.74
2019-04-26T02:39:56.207Z,35.83
2019-04-26T02:41:04.107Z,35.83
2019-04-26T02:42:19.279Z,35.88
2019-04-26T02:43:28.646Z,35.85
2019-04-26T02:44:43.723Z,35.88
2019-04-26T02:46:10.091Z,35.84
2019-04-26T02:47:41.964Z,35.83
2019-04-26T02:49:20.415Z,35.90
2019-04-26T02:50:39.387Z,36.01
2019-04-26T02:51:54.669Z,35.87
2019-04-26T02:53:18.882Z,36.34
2019-04-26T02:54:52.165Z,36.63
2019-04-26T02:56:38.256Z,36.89
2019-04-26T02:57:51.230Z,37.74
2019-04-26T02:59:03.558Z,37.12
2019-04-26T03:00:18.638Z,38.36
2019-04-26T03:01:31.261Z,38.15
2019-04-26T03:02:40.349Z,38.19
2019-04-26T03:03:48.466Z,37.32
2019-04-26T03:05:00.753Z,37.37
2019-04-26T03:06:08.892Z,37.13
2019-04-26T03:07:21.312Z,37.28
2019-04-26T03:08:33.917Z,37.24
2019-04-26T03:09:45.816Z,38.85
2019-04-26T03:10:58.137Z,37.22
2019-04-26T03:12:19.418Z,37.33
2019-04-26T03:13:35.045Z,37.61
2019-04-26T03:15:13.149Z,37.50
2019-04-26T03:16:37.396Z,37.45
2019-04-26T03:17:54.772Z,37.33
2019-04-26T03:19:14.628Z,37.44
2019-04-26T03:20:27.052Z,37.36
2019-04-26T03:21:53.946Z,37.86
2019-04-26T03:23:15.036Z,37.80
2019-04-26T03:24:37.223Z,37.92
2019-04-26T03:26:11.673Z,38.13
2019-04-26T03:27:26.700Z,37.62
2019-04-26T03:28:57.174Z,37.58
2019-04-26T03:30:22.251Z,37.57
2019-04-26T03:31:55.265Z,38.30
2019-04-26T03:33:42.958Z,37.92
2019-04-26T03:34:55.142Z,38.85
2019-04-26T03:36:30.108Z,38.70
2019-04-26T03:38:04.574Z,38.17
2019-04-26T03:39:21.069Z,39.42
2019-04-26T03:41:01.530Z,38.38
2019-04-26T03:42:36.662Z,38.50
2019-04-26T03:44:01.269Z,38.76
2019-04-26T03:45:31.471Z,38.70
2019-04-26T03:46:45.361Z,39.30
2019-04-26T03:48:03.236Z,38.63
2019-04-26T03:50:02.571Z,38.76
2019-04-26T03:51:35.726Z,38.62
2019-04-26T03:52:48.531Z,39.01
2019-04-26T03:54:16.154Z,38.74
2019-04-26T03:55:37.536Z,39.01
2019-04-26T03:57:00.020Z,39.22
2019-04-26T03:58:26.189Z,38.93
2019-04-26T03:59:55.130Z,38.79
2019-04-26T04:01:12.624Z,39.78
2019-04-26T04:02:27.817Z,39.89
2019-04-26T04:03:46.110Z,38.92
2019-04-26T04:04:59.940Z,39.85
2019-04-26T04:06:13.356Z,39.30
2019-04-26T04:07:36.720Z,40.20
2019-04-26T04:09:05.150Z,40.82
2019-04-26T04:10:23.194Z,39.32
2019-04-26T04:11:48.963Z,39.48
2019-04-26T04:13:06.924Z,40.33
2019-04-26T04:14:34.930Z,39.63
2019-04-26T04:15:49.968Z,39.33
2019-04-26T04:17:12.794Z,40.05
2019-04-26T04:18:31.212Z,39.79
2019-04-26T04:19:59.655Z,39.71
2019-04-26T04:21:30.329Z,39.33
2019-04-26T04:22:43.962Z,39.87
2019-04-26T04:24:14.969Z,39.44
2019-04-26T04:25:33.577Z,39.86
2019-04-26T04:27:10.033Z,39.33
2019-04-26T04:28:51.251Z,39.33
2019-04-26T04:30:24.938Z,39.45
2019-04-26T04:31:47.631Z,39.69
2019-04-26T04:33:16.541Z,40.39
2019-04-26T04:34:45.547Z,39.78
2019-04-26T04:35:57.723Z,39.87
2019-04-26T04:37:10.246Z,40.71
2019-04-26T04:38:34.641Z,39.99
2019-04-26T04:40:06.104Z,39.95
2019-04-26T04:41:32.584Z,40.72
2019-04-26T04:43:12.015Z,40.10
2019-04-26T04:45:11.118Z,40.79
2019-04-26T04:46:33.718Z,40.37
2019-04-26T04:48:19.098Z,40.04
2019-04-26T04:49:52.262Z,40.32
2019-04-26T04:51:33.168Z,41.03
2019-04-26T04:53:01.943Z,40.56
2019-04-26T04:55:01.729Z,40.13
2019-04-26T04:56:17.564Z,40.00
2019-04-26T04:57:55.154Z,40.01
2019-04-26T04:59:10.322Z,40.56
2019-04-26T05:00:49.296Z,40.42
2019-04-26T05:02:26.120Z,39.96
2019-04-26T05:03:47.462Z,39.97
2019-04-26T05:05:09.724Z,40.91
2019-04-26T05:06:53.869Z,40.01
2019-04-26T05:08:22.942Z,40.03
2019-04-26T05:09:45.283Z,40.22
2019-04-26T05:11:24.619Z,40.52
2019-04-26T05:12:52.139Z,40.16
2019-04-26T05:14:18.793Z,40.05
2019-04-26T05:15:44.704Z,40.48
2019-04-26T05:17:20.774Z,41.29
2019-04-26T05:19:09.641Z,40.10
2019-04-26T05:20:39.768Z,40.14
2019-04-26T05:21:55.105Z,40.84
2019-04-26T05:23:25.516Z,41.34
2019-04-26T05:24:57.463Z,40.91
2019-04-26T05:26:29.270Z,41.24
2019-04-26T05:28:10.232Z,40.90
2019-04-26T05:29:48.476Z,41.42
2019-04-26T05:31:48.664Z,41.24
2019-04-26T05:33:30.344Z,40.88
2019-04-26T05:34:56.938Z,40.81
2019-04-26T05:36:16.416Z,40.69
2019-04-26T05:37:45.188Z,40.95
2019-04-26T05:39:26.858Z,40.62
2019-04-26T05:40:51.522Z,40.61
2019-04-26T05:43:00.419Z,41.12
2019-04-26T05:44:35.560Z,41.10
2019-04-26T05:46:03.795Z,40.80
2019-04-26T05:47:38.854Z,40.76
2019-04-26T05:49:19.970Z,41.11
2019-04-26T05:51:05.688Z,41.14
2019-04-26T05:52:48.681Z,41.99
2019-04-26T05:54:37.129Z,41.75
2019-04-26T05:56:26.283Z,41.23
2019-04-26T05:57:52.615Z,41.52
2019-04-26T05:59:28.976Z,40.94
2019-04-26T06:01:04.032Z,41.80
2019-04-26T06:02:43.235Z,41.44
2019-04-26T06:04:30.545Z,41.89
2019-04-26T06:05:50.960Z,41.48
2019-04-26T06:07:26.506Z,41.66
2019-04-26T06:08:59.660Z,41.63
2019-04-26T06:10:38.912Z,41.79
2019-04-26T06:12:18.172Z,42.00
2019-04-26T06:13:53.796Z,41.74
2019-04-26T06:15:29.599Z,42.35
2019-04-26T06:17:01.758Z,41.99
2019-04-26T06:18:46.017Z,41.93
2019-04-26T06:20:23.675Z,41.76
2019-04-26T06:22:00.129Z,41.46
2019-04-26T06:23:30.482Z,41.12
2019-04-26T06:24:56.290Z,41.01
2019-04-26T06:27:10.314Z,41.14
2019-04-26T06:28:26.910Z,40.97
2019-04-26T06:30:03.184Z,41.14
2019-04-26T06:31:22.033Z,40.79
2019-04-26T06:32:55.945Z,40.97
2019-04-26T06:34:00.921Z,40.78
2019-04-26T06:35:22.674Z,40.79
2019-04-26T06:36:36.736Z,40.51
2019-04-26T06:38:43.675Z,40.73
2019-04-26T06:39:51.633Z,40.52
2019-04-26T06:41:28.061Z,40.48
2019-04-26T06:42:51.957Z,40.50
2019-04-26T06:44:20.774Z,40.59
2019-04-26T06:45:46.206Z,40.28
2019-04-26T06:47:06.716Z,40.19
2019-04-26T06:48:27.367Z,40.29
2019-04-26T06:50:03.398Z,39.97
2019-04-26T06:51:24.714Z,40.02
2019-04-26T06:52:36.135Z,40.04
2019-04-26T06:54:00.703Z,39.95
2019-04-26T06:55:39.996Z,40.14
2019-04-26T06:57:21.242Z,40.11
2019-04-26T06:59:03.822Z,39.81
2019-04-26T07:00:23.602Z,39.99
2019-04-26T07:01:38.543Z,39.74
2019-04-26T07:03:09.240Z,39.91
2019-04-26T07:04:24.689Z,39.93
2019-04-26T07:05:42.823Z,39.95
2019-04-26T07:07:33.040Z,39.64
2019-04-26T07:08:57.704Z,39.61
2019-04-26T07:10:11.531Z,39.63
2019-04-26T07:11:37.374Z,39.66
2019-04-26T07:13:16.907Z,39.54
2019-04-26T07:14:58.063Z,39.51
2019-04-26T07:16:35.897Z,39.32
2019-04-26T07:18:06.395Z,39.30
2019-04-26T07:19:58.434Z,39.27
2019-04-26T07:21:17.268Z,39.22
2019-04-26T07:22:51.033Z,39.24
2019-04-26T07:24:29.374Z,38.37
2019-04-26T07:26:10.011Z,38.43
2019-04-26T07:27:34.230Z,38.08
2019-04-26T07:29:13.666Z,38.05
2019-04-26T07:30:55.181Z,37.93
2019-04-26T07:32:40.551Z,37.87
2019-04-26T07:34:16.985Z,37.97
2019-04-26T07:35:40.673Z,37.94
2019-04-26T07:37:11.882Z,36.88
2019-04-26T07:39:18.287Z,36.98
2019-04-26T07:41:15.768Z,36.63
2019-04-26T07:43:15.587Z,36.88
2019-04-26T07:44:38.302Z,35.94
2019-04-26T07:46:20.832Z,35.89
2019-04-26T07:48:21.126Z,35.43
2019-04-26T07:50:17.662Z,35.68
2019-04-26T07:52:12.665Z,35.43
2019-04-26T07:54:07.345Z,35.80
2019-04-26T07:56:05.531Z,35.64
2019-04-26T07:57:25.233Z,35.68
2019-04-26T07:59:20.089Z,35.67
2019-04-26T08:00:44.949Z,35.93
2019-04-26T08:02:06.677Z,35.70
2019-04-26T08:03:32.863Z,35.81
2019-04-26T08:04:48.521Z,35.72
2019-04-26T08:06:07.509Z,35.78
2019-04-26T08:07:23.141Z,35.33
2019-04-26T08:08:50.436Z,34.69
2019-04-26T08:10:14.875Z,34.92
2019-04-26T08:11:39.332Z,34.22
2019-04-26T08:12:57.468Z,34.15
2019-04-26T08:14:18.606Z,34.38
2019-04-26T08:15:36.510Z,34.91
2019-04-26T08:16:59.046Z,34.05
2019-04-26T08:18:13.324Z,33.96
2019-04-26T08:19:25.844Z,33.72
2019-04-26T08:20:48.505Z,34.02
2019-04-26T08:22:11.410Z,34.14
2019-04-26T08:23:28.179Z,34.14
2019-04-26T08:24:28.254Z,34.44
2019-04-26T08:25:40.950Z,34.06
2019-04-26T08:27:13.738Z,34.00
2019-04-26T08:28:21.845Z,33.58
2019-04-26T08:29:34.615Z,33.99
2019-04-26T08:30:47.012Z,33.66
2019-04-26T08:31:59.248Z,33.46
2019-04-26T08:33:13.088Z,33.46
2019-04-26T08:34:28.914Z,33.83
2019-04-26T08:35:38.811Z,33.60
2019-04-26T08:36:57.230Z,33.24
2019-04-26T08:38:16.103Z,32.94
2019-04-26T08:39:32.484Z,32.92
2019-04-26T08:40:39.550Z,33.01
2019-04-26T08:41:50.033Z,33.04
2019-04-26T08:43:11.571Z,32.98
2019-04-26T08:44:25.327Z,33.28
2019-04-26T08:45:44.120Z,33.27
2019-04-26T08:47:16.968Z,32.88
2019-04-26T08:48:34.422Z,32.59
2019-04-26T08:49:49.191Z,32.81
2019-04-26T08:51:01.768Z,33.07
2019-04-26T08:52:14.482Z,32.77
2019-04-26T08:53:25.745Z,32.89
2019-04-26T08:54:37.834Z,32.38
2019-04-26T08:55:49.444Z,32.36
2019-04-26T08:57:05.745Z,32.37
2019-04-26T08:58:18.410Z,32.12
2019-04-26T08:59:31.093Z,32.05
2019-04-26T09:01:00.947Z,31.80
2019-04-26T09:02:26.999Z,31.66
2019-04-26T09:03:43.872Z,31.84
2019-04-26T09:05:11.415Z,32.03
2019-04-26T09:06:27.666Z,31.91
2019-04-26T09:07:40.052Z,31.84
2019-04-26T09:08:51.940Z,31.66
2019-04-26T09:10:10.590Z,31.91
2019-04-26T09:11:25.980Z,31.68
2019-04-26T09:12:30.793Z,31.42
2019-04-26T09:13:43.274Z,31.52
2019-04-26T09:14:55.779Z,31.64
2019-04-26T09:16:10.627Z,31.29
2019-04-26T09:17:18.838Z,31.29
2019-04-26T09:18:27.918Z,31.46
2019-04-26T09:19:35.915Z,31.42
2019-04-26T09:20:44.333Z,31.49
2019-04-26T09:21:54.272Z,31.18
2019-04-26T09:23:20.720Z,30.87
2019-04-26T09:24:46.028Z,31.13
2019-04-26T09:25:59.334Z,30.88
2019-04-26T09:27:22.888Z,30.89
2019-04-26T09:28:32.994Z,31.39
2019-04-26T09:29:45.310Z,30.85
2019-04-26T09:31:11.085Z,31.03
2019-04-26T09:32:24.168Z,30.84
2019-04-26T09:33:47.057Z,30.60
2019-04-26T09:34:55.099Z,30.51
2019-04-26T09:36:03.417Z,30.28
2019-04-26T09:37:11.848Z,30.60
2019-04-26T09:38:19.901Z,30.90
2019-04-26T09:39:28.489Z,30.53
2019-04-26T09:40:36.463Z,30.58
2019-04-26T09:41:44.438Z,30.75
2019-04-26T09:43:04.616Z,30.72
2019-04-26T09:44:14.106Z,30.41
2019-04-26T09:45:42.366Z,30.33
2019-04-26T09:47:08.477Z,29.95
2019-04-26T09:48:17.986Z,30.71
2019-04-26T09:49:32.326Z,30.17
2019-04-26T09:50:44.752Z,30.57
2019-04-26T09:51:52.854Z,30.35
2019-04-26T09:53:00.881Z,29.86
2019-04-26T09:54:09.273Z,29.86
2019-04-26T09:55:17.367Z,29.34
2019-04-26T09:56:25.409Z,29.54
2019-04-26T09:57:33.785Z,29.35
2019-04-26T09:58:42.194Z,29.41
2019-04-26T09:59:50.266Z,29.05
2019-04-26T10:00:58.508Z,29.18
2019-04-26T10:02:06.929Z,30.07
2019-04-26T10:03:15.064Z,29.79
2019-04-26T10:04:23.014Z,29.31
2019-04-26T10:05:31.442Z,29.30
2019-04-26T10:06:39.434Z,28.63
2019-04-26T10:07:47.672Z,28.37
2019-04-26T10:08:55.623Z,30.08
2019-04-26T10:10:03.572Z,30.32
2019-04-26T10:11:13.273Z,29.73
2019-04-26T10:12:26.036Z,29.02
2019-04-26T10:13:38.437Z,30.15
2019-04-26T10:14:51.772Z,28.75
2019-04-26T10:16:07.396Z,29.59
2019-04-26T10:17:17.446Z,27.57
2019-04-26T10:18:26.049Z,27.19
2019-04-26T10:19:35.756Z,27.90
2019-04-26T10:20:43.680Z,27.68
2019-04-26T10:21:51.549Z,28.02
2019-04-26T10:22:59.856Z,29.72
2019-04-26T10:24:08.428Z,29.82
2019-04-26T10:25:17.136Z,30.34
2019-04-26T10:26:28.239Z,29.34
2019-04-26T10:27:36.501Z,27.45
2019-04-26T10:28:46.755Z,26.84
2019-04-26T10:29:56.557Z,26.71
2019-04-26T10:31:05.094Z,27.64
2019-04-26T10:32:13.526Z,27.68
2019-04-26T10:33:21.561Z,26.85
2019-04-26T10:34:29.648Z,25.91
2019-04-26T10:35:37.864Z,25.51
2019-04-26T10:36:45.820Z,25.63
2019-04-26T10:37:53.698Z,25.60
2019-04-26T10:39:01.621Z,26.22
2019-04-26T10:40:10.119Z,25.06
2019-04-26T10:41:17.970Z,26.64
2019-04-26T10:42:26.073Z,24.27
2019-04-26T10:43:34.093Z,24.46
2019-04-26T10:44:42.402Z,23.53
2019-04-26T10:45:53.965Z,23.84
2019-04-26T10:47:04.171Z,23.70
2019-04-26T10:48:13.816Z,22.07
2019-04-26T10:49:42.741Z,21.59
2019-04-26T10:50:52.073Z,21.74
2019-04-26T10:52:00.174Z,21.85
2019-04-26T10:53:13.765Z,23.75
2019-04-26T10:54:23.999Z,24.88
2019-04-26T10:55:46.367Z,25.35
2019-04-26T10:56:57.349Z,25.25
2019-04-26T10:58:08.679Z,24.07
2019-04-26T10:59:27.218Z,24.68
2019-04-26T11:00:39.589Z,23.66
2019-04-26T11:01:47.509Z,24.43
2019-04-26T11:02:55.430Z,24.49
2019-04-26T11:04:03.521Z,24.12
2019-04-26T11:05:18.153Z,23.55
2019-04-26T11:06:24.024Z,23.62
2019-04-26T11:07:31.514Z,23.59
2019-04-26T11:08:39.763Z,23.60
2019-04-26T11:09:47.802Z,22.98
2019-04-26T11:10:55.806Z,23.06
2019-04-26T11:12:03.657Z,22.68
2019-04-26T11:13:11.541Z,22.56
2019-04-26T11:14:22.720Z,22.00
2019-04-26T11:15:32.657Z,19.42
2019-04-26T11:16:41.245Z,20.86
2019-04-26T11:17:50.012Z,21.45
2019-04-26T11:19:01.137Z,20.76
2019-04-26T11:20:10.481Z,19.66
2019-04-26T11:21:20.978Z,19.41
2019-04-26T11:22:29.191Z,20.76
2019-04-26T11:23:41.025Z,19.87
2019-04-26T11:24:50.092Z,20.50
2019-04-26T11:25:57.961Z,21.26
2019-04-26T11:27:09.808Z,21.84
2019-04-26T11:28:17.120Z,21.59
2019-04-26T11:29:28.845Z,20.32
2019-04-26T11:30:36.504Z,21.27
2019-04-26T11:31:44.655Z,21.38
2019-04-26T11:32:53.090Z,20.61
2019-04-26T11:34:05.434Z,20.73
2019-04-26T11:35:11.062Z,20.55
2019-04-26T11:36:19.208Z,20.14
2019-04-26T11:37:27.427Z,20.36
2019-04-26T11:38:35.473Z,20.35
2019-04-26T11:39:43.361Z,19.87
2019-04-26T11:41:05.088Z,20.27
2019-04-26T11:42:01.237Z,19.98
2019-04-26T11:43:09.226Z,17.81
2019-04-26T11:44:17.216Z,17.86
2019-04-26T11:45:25.326Z,17.57
2019-04-26T11:46:44.197Z,17.28
2019-04-26T11:47:55.528Z,18.10
2019-04-26T11:48:58.869Z,18.11
2019-04-26T11:50:02.960Z,18.08
2019-04-26T11:51:11.063Z,18.95
2019-04-26T11:52:19.591Z,18.88
2019-04-26T11:53:27.745Z,19.26
2019-04-26T11:54:35.853Z,18.90
2019-04-26T11:55:45.861Z,18.66
2019-04-26T11:56:53.962Z,18.79
2019-04-26T11:58:01.967Z,19.41
2019-04-26T11:59:09.783Z,18.76
2019-04-26T12:00:27.510Z,19.38
2019-04-26T12:01:36.624Z,19.54
2019-04-26T12:02:46.388Z,17.02
2019-04-26T12:04:12.989Z,16.01
2019-04-26T12:05:29.770Z,15.68
2019-04-26T12:06:48.185Z,15.07
2019-04-26T12:08:03.809Z,15.96
2019-04-26T12:09:30.009Z,16.04
2019-04-26T12:10:40.499Z,16.24
2019-04-26T12:11:50.981Z,15.56
2019-04-26T12:13:05.611Z,15.55
2019-04-26T12:14:19.367Z,16.07
2019-04-26T12:15:29.486Z,16.00
2019-04-26T12:16:26.122Z,15.38
2019-04-26T12:17:35.104Z,15.01
2019-04-26T12:18:45.429Z,15.47
2019-04-26T12:19:53.964Z,15.35
2019-04-26T12:21:02.183Z,15.88
2019-04-26T12:22:10.252Z,16.02
2019-04-26T12:23:20.490Z,16.13
2019-04-26T12:24:29.552Z,15.81
2019-04-26T12:25:38.893Z,15.94
2019-04-26T12:26:47.220Z,15.97
2019-04-26T12:27:55.392Z,15.78
2019-04-26T12:29:03.258Z,15.70
2019-04-26T12:30:12.425Z,15.77
2019-04-26T12:31:20.348Z,15.81
2019-04-26T12:32:28.296Z,15.81
2019-04-26T12:33:39.161Z,15.82
2019-04-26T12:34:45.763Z,16.08
2019-04-26T12:35:57.096Z,16.11
2019-04-26T12:37:03.678Z,16.38
2019-04-26T12:38:11.664Z,16.43
2019-04-26T12:39:20.195Z,16.49
2019-04-26T12:40:28.160Z,17.01
2019-04-26T12:41:40.238Z,17.15
2019-04-26T12:42:47.319Z,16.86
2019-04-26T12:43:59.650Z,17.66
2019-04-26T12:45:16.687Z,16.76
2019-04-26T12:46:34.368Z,17.11
2019-04-26T12:47:44.852Z,17.07
2019-04-26T12:48:52.942Z,16.94
2019-04-26T12:50:00.895Z,17.03
2019-04-26T12:51:12.097Z,16.57
2019-04-26T12:52:21.569Z,16.14
2019-04-26T12:53:31.340Z,15.09
2019-04-26T12:54:38.995Z,14.66
2019-04-26T12:55:49.094Z,14.87
2019-04-26T12:56:57.289Z,15.14
2019-04-26T12:58:05.466Z,15.00
2019-04-26T12:59:15.727Z,15.27
2019-04-26T13:00:25.040Z,15.60
2019-04-26T13:01:33.134Z,15.66
2019-04-26T13:02:41.171Z,15.99
2019-04-26T13:04:08.603Z,15.95
2019-04-26T13:05:18.951Z,16.07
2019-04-26T13:06:27.811Z,15.77
2019-04-26T13:07:39.103Z,15.55
2019-04-26T13:08:47.204Z,15.09
2019-04-26T13:10:07.193Z,15.01
2019-04-26T13:11:17.802Z,14.84
2019-04-26T13:12:29.873Z,14.80
2019-04-26T13:13:38.676Z,14.89
2019-04-26T13:14:51.292Z,14.76
2019-04-26T13:16:00.888Z,14.79
2019-04-26T13:17:13.297Z,14.92
2019-04-26T13:18:21.509Z,15.06
2019-04-26T13:19:29.827Z,15.08
2019-04-26T13:20:37.784Z,15.28
2019-04-26T13:21:46.148Z,15.18
2019-04-26T13:22:55.864Z,15.31
2019-04-26T13:24:05.882Z,15.13
2019-04-26T13:25:17.404Z,15.41
2019-04-26T13:26:23.956Z,15.41
2019-04-26T13:27:31.756Z,15.76
2019-04-26T13:28:39.876Z,15.60
2019-04-26T13:29:48.344Z,15.75
2019-04-26T13:30:57.142Z,15.19
2019-04-26T13:32:06.638Z,15.25
2019-04-26T13:33:14.586Z,15.18
2019-04-26T13:34:22.475Z,15.23
2019-04-26T13:35:31.649Z,15.41
2019-04-26T13:36:39.490Z,15.54
2019-04-26T13:37:47.517Z,15.45
2019-04-26T13:38:55.450Z,15.66
2019-04-26T13:40:03.599Z,15.64
2019-04-26T13:41:11.632Z,15.55
2019-04-26T13:42:19.727Z,15.14
2019-04-26T13:43:28.734Z,14.86
2019-04-26T13:44:47.430Z,14.82
2019-04-26T13:46:13.045Z,14.96
2019-04-26T13:47:35.939Z,15.15
2019-04-26T13:48:55.904Z,15.28
2019-04-26T13:50:07.477Z,15.12
2019-04-26T13:51:18.026Z,15.08
2019-04-26T13:52:26.004Z,15.31
2019-04-26T13:53:33.871Z,15.31
2019-04-26T13:54:41.941Z,15.64
2019-04-26T13:55:49.867Z,15.83
2019-04-26T13:56:57.593Z,16.00
2019-04-26T13:58:05.997Z,15.99
2019-04-26T13:59:13.993Z,16.11
2019-04-26T14:00:23.767Z,15.95
2019-04-26T14:01:31.651Z,15.68
2019-04-26T14:02:39.518Z,15.71
2019-04-26T14:03:47.507Z,16.00
2019-04-26T14:04:55.398Z,15.75
2019-04-26T14:06:03.356Z,15.84
2019-04-26T14:07:11.424Z,16.00
2019-04-26T14:08:19.999Z,15.88
2019-04-26T14:09:27.958Z,16.11
2019-04-26T14:10:35.923Z,16.26
2019-04-26T14:11:44.181Z,15.91
2019-04-26T14:12:52.197Z,16.07
2019-04-26T14:14:01.786Z,16.08
2019-04-26T14:15:10.304Z,16.21
2019-04-26T14:16:21.116Z,16.51
2019-04-26T14:17:29.822Z,16.57
2019-04-26T14:18:39.087Z,16.76
2019-04-26T14:19:49.500Z,16.83
2019-04-26T14:20:58.937Z,16.94
2019-04-26T14:22:08.169Z,16.92
2019-04-26T14:23:16.440Z,17.07
2019-04-26T14:24:26.024Z,16.95
2019-04-26T14:25:51.746Z,17.05
2019-04-26T14:27:01.520Z,17.37
2019-04-26T14:28:09.702Z,17.13
2019-04-26T14:29:17.739Z,17.40
2019-04-26T14:30:25.784Z,17.40
2019-04-26T14:31:33.841Z,17.55
2019-04-26T14:32:42.687Z,17.46
2019-04-26T14:33:51.117Z,17.64
2019-04-26T14:35:01.337Z,17.59
2019-04-26T14:36:17.691Z,17.54
2019-04-26T14:37:18.671Z,17.52
2019-04-26T14:38:28.055Z,17.60
2019-04-26T14:39:49.634Z,17.52
2019-04-26T14:40:46.233Z,17.38
2019-04-26T14:41:57.070Z,17.35
2019-04-26T14:43:07.536Z,17.59
2019-04-26T14:44:15.601Z,17.74
2019-04-26T14:45:24.218Z,17.83
2019-04-26T14:46:32.389Z,17.75
2019-04-26T14:47:47.119Z,17.84
2019-04-26T14:49:01.048Z,17.96
2019-04-26T14:50:13.123Z,17.76
2019-04-26T14:51:12.413Z,17.93
2019-04-26T14:52:19.527Z,17.73
2019-04-26T14:53:27.788Z,17.74
2019-04-26T14:54:35.812Z,18.06
2019-04-26T14:55:43.970Z,18.13
2019-04-26T14:56:52.661Z,18.21
2019-04-26T14:58:02.027Z,18.34
2019-04-26T14:59:11.893Z,18.41
2019-04-26T15:00:22.393Z,18.34
2019-04-26T15:01:32.319Z,18.32
2019-04-26T15:02:48.483Z,18.56
2019-04-26T15:04:14.672Z,18.52
2019-04-26T15:05:43.078Z,18.74
2019-04-26T15:06:57.968Z,18.75
2019-04-26T15:08:03.885Z,18.65
2019-04-26T15:09:18.133Z,18.99
2019-04-26T15:10:21.882Z,18.97
2019-04-26T15:11:32.171Z,18.71
2019-04-26T15:12:46.289Z,18.95
2019-04-26T15:13:49.406Z,19.18
2019-04-26T15:14:57.229Z,19.16
2019-04-26T15:16:10.390Z,19.13
2019-04-26T15:17:16.413Z,19.23
2019-04-26T15:18:29.172Z,19.27
2019-04-26T15:19:35.371Z,19.34
2019-04-26T15:20:44.092Z,19.56
2019-04-26T15:21:52.498Z,19.63
2019-04-26T15:23:00.353Z,19.65
2019-04-26T15:24:08.093Z,19.67
2019-04-26T15:25:16.198Z,19.70
2019-04-26T15:26:29.628Z,19.53
2019-04-26T15:27:36.241Z,19.52
2019-04-26T15:28:50.088Z,19.64
2019-04-26T15:29:57.294Z,19.65
2019-04-26T15:31:03.332Z,19.76
2019-04-26T15:32:13.037Z,20.03
2019-04-26T15:33:22.319Z,19.82
2019-04-26T15:34:30.710Z,19.76
2019-04-26T15:35:38.765Z,19.83
2019-04-26T15:36:47.985Z,19.89
2019-04-26T15:37:57.393Z,19.93
2019-04-26T15:39:13.590Z,19.82
2019-04-26T15:40:27.372Z,20.19
2019-04-26T15:41:43.170Z,19.79
2019-04-26T15:43:00.819Z,20.01
2019-04-26T15:44:02.901Z,19.98
2019-04-26T15:45:22.001Z,20.21
2019-04-26T15:46:41.923Z,20.14
2019-04-26T15:47:49.816Z,20.00
2019-04-26T15:49:04.731Z,20.06
2019-04-26T15:50:16.504Z,20.32
2019-04-26T15:51:27.556Z,20.30
2019-04-26T15:52:35.714Z,19.91
2019-04-26T15:53:48.720Z,20.42
2019-04-26T15:54:59.077Z,20.60
2019-04-26T15:56:03.147Z,20.55
2019-04-26T15:57:12.293Z,20.64
2019-04-26T15:58:20.404Z,20.39
2019-04-26T15:59:28.589Z,20.47
2019-04-26T16:00:36.839Z,20.77
2019-04-26T16:01:47.912Z,20.62
2019-04-26T16:02:58.661Z,20.58
2019-04-26T16:04:06.549Z,20.57
2019-04-26T16:05:16.666Z,20.73
2019-04-26T16:06:24.950Z,20.62
2019-04-26T16:07:34.557Z,20.53
2019-04-26T16:08:43.904Z,20.55
2019-04-26T16:09:55.902Z,20.61
2019-04-26T16:11:02.950Z,20.37
2019-04-26T16:12:11.129Z,20.41
2019-04-26T16:13:21.441Z,20.23
2019-04-26T16:14:31.472Z,20.44
2019-04-26T16:15:38.640Z,20.54
2019-04-26T16:16:46.936Z,20.57
2019-04-26T16:17:54.985Z,20.57
2019-04-26T16:19:03.242Z,20.83
2019-04-26T16:20:11.930Z,20.77
2019-04-26T16:21:22.061Z,20.81
2019-04-26T16:22:31.663Z,20.77